Hlavní strana
METAR-TAF:

METAR-TAF

Letiště :

Letiště Riga

Riga, Lotyšsko

zeměpisná šířka: 56-55N, zeměpisná délka: 023-58E, výška: 10 m

Aktuální stav počasí

Zpráva byla vytvořena před 13 minutami, v 02:50 UTC
Jižní vítr 4 kt
Teplota 9°C
Vlhkost vzduchu 100%
Tlak 1019 hPa
Viditelnost 10 km a více
Přízemní mlha

METAR: EVRA 200250Z 18004KT 9999 MIFG NSC 09/09 Q1019 NOSIG

Čas: 06:03 (03:03 UTC)

Předpověď počasí

Zpráva byla vytvořena před 1 hodinou a 3 minutami, v 02:00 UTC
Předpověď platná od 20 v 03 UTC do 21 v 03 UTC
Jihozápadní vítr 7 kt
Viditelnost 10 km a více
Polojasno ve výšce 3000 ft
Dočasný
od 20 v 03 UTC do 20 v 05 UTC
Viditelnost: 0500 m
ve výšce 100 ft
mlha

TAF: EVRA 200200Z 2003/2103 23007KT 9999 SCT030 TEMPO 2003/2005 0500 FG VV001

Stav a předpovědi počasí z více než 4 000 letišť (zprávy METAR a TAF).

Červené a žluté tečky na mapě představují dostupné meteorologické stanice.

Když kurzor umístíte na tečku, zobrazí se název stanice.

Pak kliknutím zobrazíte stav a předpověď počasí.

Chcete-li změnit mapu, kliknutím na zelené tlačítko se znaménkem +mapu přiblížíte, kliknutím na zelené tlačítko se znaménkem – mapu oddálíte a kliknutím na zelené šipky přejdete na sousední mapy.


METAR-TAF: